Time;durP1;ratioP1;P1;durP2;ratioP2;P2;SDS_P1;SDS_P2;PMS_P1;PMS_P2;Temp;Humidity;BMP_temperature;BMP_pressure;BME280_temperature;BME280_humidity;BME280_pressure;Samples;Min_cycle;Max_cycle;Signal;HPM_P1;HPM_P2
2023/02/23 00:00:13;;;;;;;20.70;13.30;;;;;;;-3.77;64.01;101270.27;109503;1254;74176;-94
2023/02/23 00:02:47;;;;;;;14.90;10.90;;;;;;;-3.80;64.21;101271.27;108592;1254;60384;-95
2023/02/23 00:05:33;;;;;;;19.60;11.50;;;;;;;-3.84;64.29;101269.17;108634;1253;59151;-95
2023/02/23 00:08:04;;;;;;;;;;;;;;;-3.86;64.22;101276.16;109984;1253;71852;-94
2023/02/23 00:10:34;;;;;;;20.20;11.70;;;;;;;-3.89;64.26;101275.11;109532;1254;64722;-94
2023/02/23 00:13:04;;;;;;;17.80;10.30;;;;;;;-3.97;64.58;101278.63;107219;1253;72559;-96
2023/02/23 00:15:39;;;;;;;16.20;9.90;;;;;;;-4.03;64.57;101286.25;106673;1260;61107;-94
2023/02/23 00:18:13;;;;;;;18.20;12.10;;;;;;;-4.06;64.39;101284.32;109592;1254;60400;-93
2023/02/23 00:20:43;;;;;;;22.00;13.70;;;;;;;-4.11;64.41;101288.55;107146;1254;74004;-92
2023/02/23 00:23:29;;;;;;;19.30;12.80;;;;;;;-4.18;64.49;101291.04;107152;1254;63743;-93
2023/02/23 00:26:06;;;;;;;17.40;11.40;;;;;;;-4.24;64.89;101296.25;107196;1258;72630;-96
2023/02/23 00:28:39;;;;;;;18.90;10.10;;;;;;;-4.28;65.11;101296.73;107029;1254;61684;-93
2023/02/23 00:31:22;;;;;;;17.00;10.80;;;;;;;-4.33;64.75;101304.35;106860;1260;61159;-94
2023/02/23 00:33:58;;;;;;;15.20;9.60;;;;;;;-4.37;64.89;101311.12;107376;1254;74019;-94
2023/02/23 00:36:53;;;;;;;14.50;8.70;;;;;;;-4.43;65.19;101306.27;106580;1254;65138;-92
2023/02/23 00:39:27;;;;;;;15.50;8.60;;;;;;;-4.46;65.22;101310.67;108010;1254;72824;-93
2023/02/23 00:42:02;;;;;;;15.50;9.90;;;;;;;-4.47;65.09;101316.63;106987;1254;59942;-93
2023/02/23 00:44:32;;;;;;;19.10;10.10;;;;;;;-4.51;64.98;101313.31;107230;1254;60319;-91
2023/02/23 00:47:04;;;;;;;14.90;8.70;;;;;;;-4.51;65.12;101319.98;107836;1253;72829;-92
2023/02/23 00:49:36;;;;;;;19.40;10.80;;;;;;;-4.52;64.95;101321.67;109112;1254;62701;-92
2023/02/23 00:52:05;;;;;;;20.30;9.50;;;;;;;-4.55;64.89;101322.67;108362;1254;72340;-93
2023/02/23 00:54:35;;;;;;;14.10;9.70;;;;;;;-4.57;65.00;101321.95;108209;1254;59999;-92
2023/02/23 00:57:25;;;;;;;16.20;10.10;;;;;;;-4.61;65.08;101328.39;106390;1258;62434;-94
2023/02/23 00:59:58;;;;;;;18.50;10.70;;;;;;;-4.63;65.05;101331.95;106401;1254;74021;-92
2023/02/23 01:02:30;;;;;;;18.60;10.50;;;;;;;-4.67;65.39;101334.09;106778;1254;64803;-93
2023/02/23 01:05:05;;;;;;;19.70;10.00;;;;;;;-4.75;65.40;101338.94;107903;1254;72515;-94
2023/02/23 01:07:55;;;;;;;18.50;9.70;;;;;;;-4.82;65.65;101341.40;108911;1254;60415;-95
2023/02/23 01:10:25;;;;;;;13.60;9.20;;;;;;;-4.87;65.50;101340.81;109454;1254;60399;-94
2023/02/23 01:12:58;;;;;;;13.60;9.10;;;;;;;-4.91;65.47;101346.20;109541;1254;72887;-95
2023/02/23 01:15:27;;;;;;;11.70;8.00;;;;;;;-4.94;64.86;101348.05;108376;1254;63949;-91
2023/02/23 01:17:58;;;;;;;13.00;6.60;;;;;;;-4.96;64.61;101350.20;108137;1254;72558;-93
2023/02/23 01:20:34;;;;;;;13.90;7.60;;;;;;;-4.97;63.52;101354.46;108684;1254;63614;-89
2023/02/23 01:23:42;;;;;;;11.90;7.40;;;;;;;-4.96;63.60;101352.77;109443;1252;60827;-90
2023/02/23 01:26:21;;;;;;;12.60;8.10;;;;;;;-4.97;62.99;101354.64;109305;1253;73082;-92
2023/02/23 01:28:54;;;;;;;11.00;7.70;;;;;;;-4.96;62.62;101356.88;108239;1253;65100;-94
2023/02/23 01:31:28;;;;;;;13.60;8.30;;;;;;;-5.01;62.21;101358.33;107946;1252;73647;-94
2023/02/23 01:34:00;;;;;;;12.70;8.10;;;;;;;-5.05;62.23;101358.44;109671;1254;59570;-90
2023/02/23 01:36:37;;;;;;;15.80;8.00;;;;;;;-5.10;62.15;101361.09;109258;1253;59997;-94
2023/02/23 01:39:10;;;;;;;11.90;6.60;;;;;;;-5.11;61.94;101366.69;107557;1253;71523;-93
2023/02/23 01:41:43;;;;;;;12.70;6.90;;;;;;;-5.18;61.88;101364.02;107870;1252;64005;-94
2023/02/23 01:44:14;;;;;;;13.70;7.70;;;;;;;-5.23;61.85;101367.70;107395;1254;73464;-92
2023/02/23 01:46:48;;;;;;;12.60;7.50;;;;;;;-5.28;61.76;101366.41;107485;1252;61405;-91
2023/02/23 01:49:19;;;;;;;10.40;7.00;;;;;;;-5.35;62.11;101368.86;107015;1254;60131;-94
2023/02/23 01:52:09;;;;;;;14.60;8.20;;;;;;;-5.38;62.34;101377.33;106792;1253;72978;-92
2023/02/23 01:54:43;;;;;;;14.80;7.80;;;;;;;-5.40;62.18;101373.36;106650;1254;65081;-93
2023/02/23 01:57:13;;;;;;;13.50;8.70;;;;;;;-5.43;62.06;101380.46;106829;1252;73425;-92
2023/02/23 01:59:48;;;;;;;13.30;8.10;;;;;;;-5.48;62.24;101383.11;106671;1260;61744;-92
2023/02/23 02:02:18;;;;;;;12.30;6.40;;;;;;;-5.54;62.31;101386.76;106679;1254;61127;-94
2023/02/23 02:04:50;;;;;;;13.10;7.40;;;;;;;-5.57;62.42;101388.21;107024;1256;73400;-94
2023/02/23 02:07:25;;;;;;;10.30;6.60;;;;;;;-5.55;62.32;101392.34;107804;1256;64799;-94
2023/02/23 02:12:47;;;;;;;10.80;6.30;;;;;;;-5.44;62.74;101393.58;107467;1252;61089;-96
2023/02/23 02:15:24;;;;;;;9.00;6.20;;;;;;;-5.37;62.66;101398.30;108665;1254;59994;-95
2023/02/23 02:18:17;;;;;;;11.50;6.60;;;;;;;-5.31;62.59;101403.51;108951;1254;72986;-95
2023/02/23 02:21:03;;;;;;;12.80;6.10;;;;;;;-5.23;62.41;101409.27;108797;1253;63965;-90
2023/02/23 02:24:00;;;;;;;9.50;5.50;;;;;;;-5.16;62.34;101409.04;109923;1252;72700;-91
2023/02/23 02:27:04;;;;;;;10.00;6.50;;;;;;;-5.12;62.62;101415.26;109358;1253;60929;-92
2023/02/23 02:30:12;;;;;;;10.50;6.70;;;;;;;-5.12;62.33;101421.90;109097;1253;59285;-92
2023/02/23 02:32:46;;;;;;;9.90;5.70;;;;;;;-5.10;62.31;101426.89;109525;1252;73478;-93
2023/02/23 02:35:24;;;;;;;11.00;6.50;;;;;;;-5.08;61.96;101425.55;109587;1253;63660;-91
2023/02/23 02:38:31;;;;;;;11.20;5.80;;;;;;;-5.05;62.14;101430.04;108905;1253;72601;-91
2023/02/23 02:41:29;;;;;;;10.00;6.00;;;;;;;-5.06;62.01;101431.38;109536;1253;61109;-90
2023/02/23 02:44:24;;;;;;;11.50;6.50;;;;;;;-5.10;62.15;101433.70;109541;1253;59915;-91
2023/02/23 02:47:04;;;;;;;9.60;6.40;;;;;;;-5.10;62.40;101440.50;108370;1252;73202;-93
2023/02/23 02:49:48;;;;;;;9.60;6.40;;;;;;;-5.06;62.51;101441.62;106988;1256;63617;-93
2023/02/23 02:52:23;;;;;;;9.50;5.80;;;;;;;-5.04;62.70;101442.84;106481;1253;73752;-93
2023/02/23 02:54:55;;;;;;;12.00;7.60;;;;;;;-5.08;62.54;101437.33;106908;1254;62553;-92
2023/02/23 02:57:26;;;;;;;11.30;7.00;;;;;;;-5.07;62.43;101447.56;109299;1253;60026;-92
2023/02/23 04:18:33;;;;;;;;;;;;;;;-4.85;61.31;101519.23;107069;1254;72492;-92
2023/02/23 04:21:01;;;;;;;9.50;7.60;;;;;;;-4.81;61.32;101522.36;107139;1254;62386;-94
2023/02/23 04:23:31;;;;;;;11.80;7.30;;;;;;;-4.80;61.27;101521.02;109070;1252;60027;-94
2023/02/23 04:26:01;;;;;;;12.10;8.30;;;;;;;-4.74;61.34;101522.83;109776;1253;73818;-92
2023/02/23 04:28:34;;;;;;;;;;;;;;;-4.72;61.18;101527.30;109114;1252;65971;-94
2023/02/23 04:31:03;;;;;;;9.60;7.00;;;;;;;-4.76;60.92;101533.02;109618;1253;72565;-92
2023/02/23 04:33:33;;;;;;;13.90;8.10;;;;;;;-4.83;60.78;101529.83;109249;1253;61210;-93
2023/02/23 04:36:02;;;;;;;15.00;7.70;;;;;;;-4.85;60.73;101536.27;108984;1253;60124;-94
2023/02/23 04:38:42;;;;;;;13.70;8.20;;;;;;;-4.90;60.57;101541.98;108985;1254;76190;-92
2023/02/23 04:41:10;;;;;;;11.50;7.70;;;;;;;-4.92;60.49;101542.45;108447;1253;64883;-93
2023/02/23 04:43:40;;;;;;;12.40;8.60;;;;;;;-4.89;60.51;101543.02;107870;1255;73630;-92
2023/02/23 04:46:09;;;;;;;13.50;7.70;;;;;;;-4.89;60.61;101548.98;107513;1253;62463;-92
2023/02/23 04:48:38;;;;;;;15.60;8.20;;;;;;;-4.85;60.67;101555.73;106294;1252;60466;-93
2023/02/23 04:51:07;;;;;;;12.20;7.80;;;;;;;-4.81;60.63;101560.06;106241;1254;74914;-94
2023/02/23 04:53:37;;;;;;;11.50;6.40;;;;;;;-4.77;60.80;101564.05;106430;1253;64803;-93
2023/02/23 04:56:06;;;;;;;16.40;8.60;;;;;;;-4.73;60.41;101566.52;106493;1253;72484;-92
2023/02/23 04:58:35;;;;;;;12.50;7.20;;;;;;;-4.72;60.29;101567.89;106112;1260;62293;-94
2023/02/23 05:01:08;;;;;;;12.40;8.60;;;;;;;-4.68;60.55;101573.77;106668;1254;61186;-91
2023/02/23 05:03:39;;;;;;;15.60;7.40;;;;;;;-4.66;60.41;101578.58;106866;1254;73840;-93
2023/02/23 05:06:08;;;;;;;10.80;7.00;;;;;;;-4.65;60.64;101580.98;108834;1252;63849;-92
2023/02/23 05:08:37;;;;;;;13.40;8.10;;;;;;;-4.62;60.81;101586.84;107774;1259;72638;-94
2023/02/23 05:11:06;;;;;;;11.20;7.00;;;;;;;-4.60;60.70;101592.00;106944;1256;61058;-95
2023/02/23 05:13:38;;;;;;;12.50;7.20;;;;;;;-4.55;60.69;101596.69;107783;1253;60507;-93
2023/02/23 05:16:08;;;;;;;11.70;7.00;;;;;;;-4.56;60.52;101603.66;106605;1253;74917;-93
2023/02/23 05:18:38;;;;;;;15.20;8.20;;;;;;;-4.57;60.79;101605.52;106424;1256;64925;-92
2023/02/23 05:21:12;;;;;;;17.10;8.70;;;;;;;-4.50;60.92;101612.98;107042;1256;73858;-94
2023/02/23 05:23:44;;;;;;;15.90;9.30;;;;;;;-4.44;60.65;101622.66;108006;1254;60813;-95
2023/02/23 05:26:15;;;;;;;14.50;8.60;;;;;;;-4.38;60.86;101629.23;107602;1252;59614;-94
2023/02/23 05:29:29;;;;;;;14.80;8.20;;;;;;;-4.35;60.53;101630.15;108950;1253;73823;-93
2023/02/23 05:32:11;;;;;;;18.50;9.60;;;;;;;-4.27;60.49;101630.80;109597;1253;62557;-94
2023/02/23 05:35:12;;;;;;;15.50;8.20;;;;;;;-4.18;59.95;101635.05;107939;1252;72466;-94
2023/02/23 05:37:44;;;;;;;14.80;7.80;;;;;;;-4.11;59.90;101637.21;107195;1252;61014;-94
2023/02/23 05:40:42;;;;;;;11.40;7.30;;;;;;;-4.00;60.00;101639.77;107173;1253;60357;-96
2023/02/23 05:43:59;;;;;;;14.50;7.20;;;;;;;-3.76;59.58;101641.00;108979;1252;74573;-95
2023/02/23 05:48:31;;;;;;;13.90;8.70;;;;;;;-3.20;59.02;101647.79;109519;1253;62568;-96
2023/02/23 05:55:43;;;;;;;;;;;;;;;;;;;;;
2023/02/23 05:59:22;;;;;;;13.30;8.80;;;;;;;-0.52;53.39;101659.66;107845;1278;61590;-93
2023/02/23 06:01:54;;;;;;;14.80;8.50;;;;;;;0.11;52.79;101659.04;107580;1278;74483;-95
2023/02/23 06:04:54;;;;;;;15.70;9.30;;;;;;;0.81;51.04;101660.31;107323;1282;61980;-94
2023/02/23 06:07:58;;;;;;;13.00;8.30;;;;;;;1.59;49.37;101671.35;107419;1282;71231;-95
2023/02/23 06:11:04;;;;;;;12.40;8.40;;;;;;;2.31;47.54;101672.89;107448;1281;58749;-94
2023/02/23 06:13:57;;;;;;;14.00;9.90;;;;;;;2.81;46.48;101677.24;107079;1285;60540;-95
2023/02/23 06:17:08;;;;;;;15.70;10.20;;;;;;;3.38;44.91;101678.64;106864;1285;73264;-93
2023/02/23 06:20:19;;;;;;;14.20;9.40;;;;;;;3.89;43.44;101674.64;107012;1284;63781;-95
2023/02/23 06:23:04;;;;;;;17.10;10.10;;;;;;;4.24;41.69;101668.88;107058;1286;74626;-95
2023/02/23 06:25:37;;;;;;;13.30;9.80;;;;;;;4.30;40.20;101663.92;107097;1286;59879;-91
2023/02/23 06:28:13;;;;;;;13.20;9.60;;;;;;;4.37;39.72;101672.65;107082;1285;60189;-95
2023/02/23 06:30:51;;;;;;;16.70;9.30;;;;;;;4.55;39.08;101675.77;106876;1284;74272;-93
2023/02/23 06:33:20;;;;;;;14.00;9.60;;;;;;;4.89;38.42;101679.47;107045;1285;63653;-96
2023/02/23 06:36:00;;;;;;;17.00;10.20;;;;;;;5.10;36.72;101671.97;106899;1285;72669;-95
2023/02/23 06:38:38;;;;;;;11.90;9.00;;;;;;;4.91;36.49;101676.52;107025;1284;59304;-96
2023/02/23 06:41:54;;;;;;;14.50;9.30;;;;;;;4.72;36.48;101676.70;107447;1261;60419;-95
2023/02/23 06:45:53;;;;;;;13.20;9.50;;;;;;;4.80;36.96;101670.81;108521;1267;75452;-92
2023/02/23 06:54:49;;;;;;;;;;;;;;;;;;;;;
2023/02/23 06:58:51;;;;;;;15.30;10.30;;;;;;;1.71;39.85;101687.48;108610;1270;59972;-94
2023/02/23 07:02:15;;;;;;;14.00;10.00;;;;;;;0.92;40.97;101688.02;108178;1276;61277;-95
2023/02/23 07:05:01;;;;;;;15.20;9.20;;;;;;;0.57;41.82;101686.70;107994;1275;73941;-94
2023/02/23 07:07:48;;;;;;;18.90;10.30;;;;;;;0.25;42.92;101684.48;108098;1275;63965;-95
2023/02/23 07:18:17;;;;;;;15.50;10.00;;;;;;;-0.94;44.80;101702.25;108214;1267;61133;31
2023/02/23 07:54:29;;;;;;;;;;;;;;;;;;;;;
2023/02/23 07:58:17;;;;;;;14.30;7.90;;;;;;;-2.54;48.83;101738.61;105353;1266;73188;-95
2023/02/23 08:15:57;;;;;;;14.40;9.10;;;;;;;-1.57;49.35;101749.17;107386;1270;72848;-95
2023/02/23 08:35:39;;;;;;;15.60;7.60;;;;;;;4.98;36.03;101760.41;103272;1270;976538;-91
2023/02/23 08:42:37;;;;;;;11.60;7.30;;;;;;;6.20;33.94;101758.77;108568;1266;59022;-92
2023/02/23 08:45:54;;;;;;;12.10;6.70;;;;;;;6.78;32.51;101754.75;108503;1270;58823;-94
2023/02/23 08:48:52;;;;;;;;;;;;;;;7.00;31.76;101758.34;108497;1267;73896;-91
2023/02/23 08:52:52;;;;;;;9.50;6.50;;;;;;;6.92;31.76;101758.21;108657;1270;62975;31
2023/02/23 08:55:50;;;;;;;8.80;6.60;;;;;;;6.82;31.24;101761.95;108333;1273;70988;-93
2023/02/23 08:58:52;;;;;;;7.70;5.60;;;;;;;6.66;31.41;101768.27;108321;1273;58659;-93
2023/02/23 09:05:31;;;;;;;8.20;5.70;;;;;;;7.36;30.99;101773.55;107768;1279;72653;-94
2023/02/23 09:08:32;;;;;;;8.50;6.30;;;;;;;7.94;30.56;101772.89;107502;1283;62404;-94
2023/02/23 09:22:28;;;;;;;8.90;6.20;;;;;;;9.09;28.48;101773.13;106809;1279;613336;-92
2023/02/23 09:26:52;;;;;;;8.90;6.70;;;;;;;8.84;28.51;101774.73;105312;1255;5004499;-93
2023/02/23 09:43:29;;;;;;;9.20;6.10;;;;;;;9.94;27.88;101778.89;106361;1282;613071;-93
2023/02/23 09:49:52;;;;;;;8.70;6.10;;;;;;;10.12;27.22;101772.85;107672;1273;60296;-94
2023/02/23 09:57:59;;;;;;;9.60;6.30;;;;;;;10.10;27.15;101770.82;107636;1272;63562;-94
2023/02/23 11:32:52;;;;;;;;;;;;;;;;;;;;;
2023/02/23 11:36:34;;;;;;;8.90;6.90;;;;;;;7.38;29.26;101758.87;104733;1263;5575390;-94
2023/02/23 11:40:40;;;;;;;8.70;6.70;;;;;;;6.76;30.08;101758.45;110319;1243;70931;-95
2023/02/23 11:44:21;;;;;;;7.80;5.90;;;;;;;6.50;30.41;101755.28;111448;1228;61732;31
2023/02/23 11:51:53;;;;;;;8.30;5.60;;;;;;;5.54;31.46;101752.58;112253;1231;58162;-94
2023/02/23 11:56:14;;;;;;;7.00;5.60;;;;;;;5.15;32.41;101746.05;112508;1230;59518;-95
2023/02/23 12:19:11;;;;;;;9.20;5.40;;;;;;;3.46;35.53;101767.39;112543;1231;72851;-95
2023/02/23 12:24:03;;;;;;;7.40;5.70;;;;;;;3.24;36.27;101768.85;111651;1242;67100;-96
2023/02/23 12:32:13;;;;;;;;;;;;;;;;;;;;;
2023/02/23 12:36:17;;;;;;;11.20;6.40;;;;;;;2.74;37.06;101768.65;112524;1231;61642;-96
2023/02/23 12:40:09;;;;;;;9.60;5.90;;;;;;;2.61;37.40;101770.67;111684;1231;73982;-95
2023/02/23 12:43:30;;;;;;;7.30;5.50;;;;;;;2.41;37.93;101761.68;112671;1231;62972;-94
2023/02/23 12:46:52;;;;;;;;;;;;;;;;;;;;;
2023/02/23 12:50:32;;;;;;;11.10;6.80;;;;;;;2.35;38.30;101768.45;111611;1246;60420;-94
2023/02/23 12:54:26;;;;;;;;;;;;;;;;;;;;;
2023/02/23 13:48:41;;;;;;;;;;;;;;;;;;;;;
2023/02/23 13:53:49;;;;;;;;;;;;;;;;;;;;;
2023/02/23 14:21:38;;;;;;;8.20;5.50;;;;;;;-0.49;45.91;101824.73;109223;1260;976181;-94
2023/02/23 14:25:31;;;;;;;12.00;8.00;;;;;;;-0.60;46.28;101818.66;106020;1292;601853;-94
2023/02/23 14:38:54;;;;;;;12.70;6.20;;;;;;;-0.58;46.53;101809.91;108129;1259;487784;-95
2023/02/23 14:46:29;;;;;;;9.20;6.30;;;;;;;-0.66;46.63;101809.52;106966;1283;73870;-95
2023/02/23 14:50:27;;;;;;;13.60;6.90;;;;;;;-0.67;46.85;101808.50;106012;1291;59067;-94
2023/02/23 23:39:10;;;;;;;45.40;24.60;;;;;;;-4.13;69.13;101886.65;105043;1292;613481;-94
2023/02/23 23:41:56;;;;;;;44.30;24.70;;;;;;;-4.22;68.81;101877.58;106946;1270;59328;-96
2023/02/23 23:44:35;;;;;;;54.80;26.90;;;;;;;-4.25;68.73;101867.45;106006;1268;59357;-96
2023/02/23 23:47:15;;;;;;;92.30;42.90;;;;;;;-4.22;68.43;101864.61;107025;1267;73469;-94
2023/02/23 23:50:09;;;;;;;66.00;33.90;;;;;;;-4.22;68.09;101866.30;108289;1267;65528;-95
2023/02/23 23:52:46;;;;;;;45.60;23.10;;;;;;;-4.23;67.46;101857.41;107959;1264;709488;-96
2023/02/23 23:55:54;;;;;;;36.50;20.50;;;;;;;-4.21;66.90;101861.04;107629;1266;61153;-96
2023/02/23 23:58:37;;;;;;;33.00;18.20;;;;;;;-4.20;66.50;101857.98;107574;1266;59204;-95
